sensor_id;sensor_type;location;lat;lon;timestamp;pressure;altitude;pressure_sealevel;temperature;humidity
35435;BME280;21556;55.782;37.528;2024-02-23T00:02:10;99973.84;;;0.57;100.00
35435;BME280;21556;55.782;37.528;2024-02-23T00:04:37;99979.53;;;0.52;100.00
35435;BME280;21556;55.782;37.528;2024-02-23T00:07:06;99974.03;;;0.32;100.00
35435;BME280;21556;55.782;37.528;2024-02-23T00:09:32;99975.56;;;0.43;100.00
35435;BME280;21556;55.782;37.528;2024-02-23T00:11:58;99986.28;;;0.21;100.00
35435;BME280;21556;55.782;37.528;2024-02-23T00:14:37;99979.91;;;0.30;100.00
35435;BME280;21556;55.782;37.528;2024-02-23T00:17:10;99970.06;;;0.09;100.00
35435;BME280;21556;55.782;37.528;2024-02-23T00:19:37;99976.25;;;0.26;100.00
35435;BME280;21556;55.782;37.528;2024-02-23T00:22:06;99965.41;;;0.32;100.00
35435;BME280;21556;55.782;37.528;2024-02-23T00:24:32;99977.22;;;0.56;100.00
35435;BME280;21556;55.782;37.528;2024-02-23T00:27:04;99966.03;;;0.28;100.00
35435;BME280;21556;55.782;37.528;2024-02-23T00:29:30;99962.81;;;0.60;100.00
35435;BME280;21556;55.782;37.528;2024-02-23T00:31:58;99971.16;;;0.41;100.00
35435;BME280;21556;55.782;37.528;2024-02-23T00:34:26;99972.97;;;0.29;100.00
35435;BME280;21556;55.782;37.528;2024-02-23T00:36:56;99967.97;;;0.60;100.00
35435;BME280;21556;55.782;37.528;2024-02-23T00:39:22;99970.94;;;0.38;100.00
35435;BME280;21556;55.782;37.528;2024-02-23T00:41:51;99978.22;;;0.30;100.00
35435;BME280;21556;55.782;37.528;2024-02-23T00:44:17;99969.88;;;0.34;100.00
35435;BME280;21556;55.782;37.528;2024-02-23T00:46:43;99972.72;;;0.39;100.00
35435;BME280;21556;55.782;37.528;2024-02-23T00:49:09;99986.81;;;0.44;100.00
35435;BME280;21556;55.782;37.528;2024-02-23T00:51:40;99988.47;;;0.71;100.00
35435;BME280;21556;55.782;37.528;2024-02-23T00:54:06;99992.63;;;0.27;100.00
35435;BME280;21556;55.782;37.528;2024-02-23T00:56:34;99982.84;;;0.64;100.00
35435;BME280;21556;55.782;37.528;2024-02-23T00:59:06;99986.81;;;0.44;100.00
35435;BME280;21556;55.782;37.528;2024-02-23T01:01:32;99981.78;;;0.60;100.00
35435;BME280;21556;55.782;37.528;2024-02-23T01:04:04;99989.16;;;0.69;100.00
35435;BME280;21556;55.782;37.528;2024-02-23T01:06:36;99990.22;;;0.58;100.00
35435;BME280;21556;55.782;37.528;2024-02-23T01:09:02;99994.41;;;0.84;100.00
35435;BME280;21556;55.782;37.528;2024-02-23T01:11:33;99997.47;;;0.63;100.00
35435;BME280;21556;55.782;37.528;2024-02-23T01:14:01;99997.97;;;0.58;100.00
35435;BME280;21556;55.782;37.528;2024-02-23T01:16:27;99971.09;;;0.69;100.00
35435;BME280;21556;55.782;37.528;2024-02-23T01:18:54;99978.16;;;0.86;100.00
35435;BME280;21556;55.782;37.528;2024-02-23T01:21:21;99977.50;;;0.61;100.00
35435;BME280;21556;55.782;37.528;2024-02-23T01:23:47;99979.72;;;0.55;100.00
35435;BME280;21556;55.782;37.528;2024-02-23T01:26:13;99978.75;;;0.67;100.00
35435;BME280;21556;55.782;37.528;2024-02-23T01:28:40;99974.69;;;0.86;100.00
35435;BME280;21556;55.782;37.528;2024-02-23T01:31:09;99973.69;;;0.69;100.00
35435;BME280;21556;55.782;37.528;2024-02-23T01:33:39;99982.19;;;0.96;100.00
35435;BME280;21556;55.782;37.528;2024-02-23T01:36:08;99973.72;;;0.84;100.00
35435;BME280;21556;55.782;37.528;2024-02-23T01:38:38;99986.84;;;0.59;100.00
35435;BME280;21556;55.782;37.528;2024-02-23T01:41:04;99985.91;;;0.86;100.00
35435;BME280;21556;55.782;37.528;2024-02-23T01:43:38;99983.25;;;0.85;100.00
35435;BME280;21556;55.782;37.528;2024-02-23T01:46:07;99985.03;;;0.86;100.00
35435;BME280;21556;55.782;37.528;2024-02-23T01:48:34;99974.88;;;1.04;100.00
35435;BME280;21556;55.782;37.528;2024-02-23T01:51:03;99971.66;;;1.23;100.00
35435;BME280;21556;55.782;37.528;2024-02-23T01:53:32;99972.03;;;0.99;100.00
35435;BME280;21556;55.782;37.528;2024-02-23T01:55:59;99975.81;;;0.61;100.00
35435;BME280;21556;55.782;37.528;2024-02-23T01:58:26;99987.59;;;0.71;100.00
35435;BME280;21556;55.782;37.528;2024-02-23T02:00:54;99974.44;;;0.96;100.00
35435;BME280;21556;55.782;37.528;2024-02-23T02:03:20;99971.16;;;1.13;100.00
35435;BME280;21556;55.782;37.528;2024-02-23T02:05:46;99977.09;;;0.83;100.00
35435;BME280;21556;55.782;37.528;2024-02-23T02:08:12;99978.91;;;0.84;100.00
35435;BME280;21556;55.782;37.528;2024-02-23T02:10:38;99968.84;;;1.03;100.00
35435;BME280;21556;55.782;37.528;2024-02-23T02:13:05;99974.59;;;0.69;100.00
35435;BME280;21556;55.782;37.528;2024-02-23T02:15:34;99975.13;;;0.79;100.00
35435;BME280;21556;55.782;37.528;2024-02-23T02:18:03;99962.13;;;0.77;100.00
35435;BME280;21556;55.782;37.528;2024-02-23T02:20:35;99971.59;;;0.77;100.00
35435;BME280;21556;55.782;37.528;2024-02-23T02:23:02;99975.69;;;0.88;100.00
35435;BME280;21556;55.782;37.528;2024-02-23T02:25:29;99973.53;;;0.81;100.00
35435;BME280;21556;55.782;37.528;2024-02-23T02:27:56;99982.88;;;0.93;100.00
35435;BME280;21556;55.782;37.528;2024-02-23T02:30:24;99968.66;;;1.00;100.00
35435;BME280;21556;55.782;37.528;2024-02-23T02:32:58;99966.25;;;1.03;100.00
35435;BME280;21556;55.782;37.528;2024-02-23T02:35:25;99984.75;;;0.66;100.00
35435;BME280;21556;55.782;37.528;2024-02-23T02:37:51;99979.03;;;0.87;100.00
35435;BME280;21556;55.782;37.528;2024-02-23T02:40:21;99985.19;;;0.74;100.00
35435;BME280;21556;55.782;37.528;2024-02-23T02:42:47;99977.03;;;0.53;100.00
35435;BME280;21556;55.782;37.528;2024-02-23T02:45:13;99979.19;;;0.60;100.00
35435;BME280;21556;55.782;37.528;2024-02-23T02:47:42;99977.50;;;0.61;100.00
35435;BME280;21556;55.782;37.528;2024-02-23T02:50:08;99986.59;;;0.69;100.00
35435;BME280;21556;55.782;37.528;2024-02-23T02:52:35;99982.84;;;0.64;100.00
35435;BME280;21556;55.782;37.528;2024-02-23T02:55:01;99978.97;;;0.85;100.00
35435;BME280;21556;55.782;37.528;2024-02-23T02:57:27;99982.41;;;0.71;100.00
35435;BME280;21556;55.782;37.528;2024-02-23T02:59:53;99982.66;;;0.61;100.00
35435;BME280;21556;55.782;37.528;2024-02-23T03:02:19;99974.88;;;0.46;100.00
35435;BME280;21556;55.782;37.528;2024-02-23T03:04:51;99980.19;;;0.62;100.00
35435;BME280;21556;55.782;37.528;2024-02-23T03:07:20;99986.47;;;0.81;100.00
35435;BME280;21556;55.782;37.528;2024-02-23T03:09:49;99981.06;;;0.63;100.00
35435;BME280;21556;55.782;37.528;2024-02-23T03:12:17;99979.31;;;0.62;100.00
35435;BME280;21556;55.782;37.528;2024-02-23T03:14:46;99990.28;;;0.16;100.00
35435;BME280;21556;55.782;37.528;2024-02-23T03:17:12;99978.16;;;0.86;100.00
35435;BME280;21556;55.782;37.528;2024-02-23T03:19:38;99999.31;;;0.51;100.00
35435;BME280;21556;55.782;37.528;2024-02-23T03:22:05;99991.03;;;0.57;100.00
35435;BME280;21556;55.782;37.528;2024-02-23T03:24:34;99994.53;;;0.87;100.00
35435;BME280;21556;55.782;37.528;2024-02-23T03:27:01;99990.81;;;0.96;100.00
35435;BME280;21556;55.782;37.528;2024-02-23T03:29:27;99998.84;;;1.01;100.00
35435;BME280;21556;55.782;37.528;2024-02-23T03:31:56;99994.66;;;0.88;100.00
35435;BME280;21556;55.782;37.528;2024-02-23T03:34:22;100000.91;;;0.92;100.00
35435;BME280;21556;55.782;37.528;2024-02-23T03:36:49;99999.41;;;0.67;100.00
35435;BME280;21556;55.782;37.528;2024-02-23T03:39:15;100003.22;;;1.02;100.00
35435;BME280;21556;55.782;37.528;2024-02-23T03:41:41;100005.63;;;1.14;100.00
35435;BME280;21556;55.782;37.528;2024-02-23T03:44:07;100000.72;;;1.18;100.00
35435;BME280;21556;55.782;37.528;2024-02-23T03:46:36;100011.59;;;0.98;100.00
35435;BME280;21556;55.782;37.528;2024-02-23T03:49:03;100023.16;;;1.05;100.00
35435;BME280;21556;55.782;37.528;2024-02-23T03:51:29;100026.38;;;1.01;100.00
35435;BME280;21556;55.782;37.528;2024-02-23T03:53:57;100028.88;;;0.99;100.00
35435;BME280;21556;55.782;37.528;2024-02-23T03:56:24;100023.31;;;0.78;100.00
35435;BME280;21556;55.782;37.528;2024-02-23T03:58:50;100014.00;;;1.10;100.00
35435;BME280;21556;55.782;37.528;2024-02-23T04:01:17;100020.78;;;1.08;100.00
35435;BME280;21556;55.782;37.528;2024-02-23T04:03:43;100021.84;;;1.11;100.00
35435;BME280;21556;55.782;37.528;2024-02-23T04:06:09;100006.06;;;1.36;100.00
35435;BME280;21556;55.782;37.528;2024-02-23T04:08:35;100018.63;;;1.15;100.00
35435;BME280;21556;55.782;37.528;2024-02-23T04:11:04;100020.56;;;0.90;100.00
35435;BME280;21556;55.782;37.528;2024-02-23T04:13:30;100016.97;;;1.31;100.00
35435;BME280;21556;55.782;37.528;2024-02-23T04:15:56;100019.19;;;1.39;100.00
35435;BME280;21556;55.782;37.528;2024-02-23T04:18:29;100018.13;;;1.36;100.00
35435;BME280;21556;55.782;37.528;2024-02-23T04:20:57;100025.91;;;0.93;100.00
35435;BME280;21556;55.782;37.528;2024-02-23T04:23:24;100029.50;;;0.95;100.00
35435;BME280;21556;55.782;37.528;2024-02-23T04:25:53;100030.34;;;0.66;100.00
35435;BME280;21556;55.782;37.528;2024-02-23T04:28:22;100025.31;;;0.97;100.00
35435;BME280;21556;55.782;37.528;2024-02-23T04:30:51;100032.81;;;1.07;100.00
35435;BME280;21556;55.782;37.528;2024-02-23T04:33:20;100027.53;;;0.91;100.00
35435;BME280;21556;55.782;37.528;2024-02-23T04:35:49;100033.69;;;1.08;100.00
35435;BME280;21556;55.782;37.528;2024-02-23T04:38:17;100030.19;;;0.78;100.00
35435;BME280;21556;55.782;37.528;2024-02-23T04:40:43;100038.53;;;0.74;100.00
35435;BME280;21556;55.782;37.528;2024-02-23T04:43:12;100035.56;;;1.10;100.00
35435;BME280;21556;55.782;37.528;2024-02-23T04:45:46;100032.97;;;0.95;100.00
35435;BME280;21556;55.782;37.528;2024-02-23T04:48:12;100030.13;;;0.63;100.00
35435;BME280;21556;55.782;37.528;2024-02-23T04:50:38;100043.09;;;0.78;100.00
35435;BME280;21556;55.782;37.528;2024-02-23T04:53:10;100031.06;;;0.78;100.00
35435;BME280;21556;55.782;37.528;2024-02-23T04:55:36;100047.31;;;0.62;100.00
35435;BME280;21556;55.782;37.528;2024-02-23T04:58:03;100042.16;;;1.05;100.00
35435;BME280;21556;55.782;37.528;2024-02-23T05:00:32;100039.66;;;1.07;100.00
35435;BME280;21556;55.782;37.528;2024-02-23T05:03:07;100044.03;;;1.23;100.00
35435;BME280;21556;55.782;37.528;2024-02-23T05:05:45;100054.34;;;0.93;100.00
35435;BME280;21556;55.782;37.528;2024-02-23T05:08:11;100048.69;;;0.70;100.00
35435;BME280;21556;55.782;37.528;2024-02-23T05:10:42;100054.19;;;1.05;100.00
35435;BME280;21556;55.782;37.528;2024-02-23T05:13:10;100068.56;;;1.14;100.00
35435;BME280;21556;55.782;37.528;2024-02-23T05:15:37;100051.78;;;1.08;100.00
35435;BME280;21556;55.782;37.528;2024-02-23T05:18:03;100055.38;;;1.25;100.00
35435;BME280;21556;55.782;37.528;2024-02-23T05:20:30;100065.69;;;1.10;100.00
35435;BME280;21556;55.782;37.528;2024-02-23T05:22:56;100062.47;;;0.99;100.00
35435;BME280;21556;55.782;37.528;2024-02-23T05:25:22;100057.59;;;1.18;100.00
35435;BME280;21556;55.782;37.528;2024-02-23T05:27:48;100046.56;;;1.51;100.00
35435;BME280;21556;55.782;37.528;2024-02-23T05:30:14;100051.53;;;1.18;100.00
35435;BME280;21556;55.782;37.528;2024-02-23T05:32:40;100060.81;;;1.29;100.00
35435;BME280;21556;55.782;37.528;2024-02-23T05:35:06;100063.47;;;1.16;100.00
35435;BME280;21556;55.782;37.528;2024-02-23T05:37:32;100069.66;;;0.90;100.00
35435;BME280;21556;55.782;37.528;2024-02-23T05:39:58;100074.13;;;0.92;100.00
35435;BME280;21556;55.782;37.528;2024-02-23T05:42:25;100076.44;;;0.60;100.00
35435;BME280;21556;55.782;37.528;2024-02-23T05:44:56;100070.00;;;1.24;100.00
35435;BME280;21556;55.782;37.528;2024-02-23T05:47:23;100070.72;;;1.36;100.00
35435;BME280;21556;55.782;37.528;2024-02-23T05:49:50;100088.72;;;0.92;100.00
35435;BME280;21556;55.782;37.528;2024-02-23T05:52:16;100081.13;;;1.23;100.00
35435;BME280;21556;55.782;37.528;2024-02-23T05:54:42;100072.06;;;1.02;100.00
35435;BME280;21556;55.782;37.528;2024-02-23T05:57:08;100086.56;;;1.13;100.00
35435;BME280;21556;55.782;37.528;2024-02-23T05:59:36;100085.72;;;0.99;100.00
35435;BME280;21556;55.782;37.528;2024-02-23T06:02:02;100071.97;;;1.28;100.00
35435;BME280;21556;55.782;37.528;2024-02-23T06:04:31;100079.78;;;1.15;100.00
35435;BME280;21556;55.782;37.528;2024-02-23T06:06:57;100090.53;;;0.80;100.00
35435;BME280;21556;55.782;37.528;2024-02-23T06:09:24;100079.06;;;1.17;100.00
35435;BME280;21556;55.782;37.528;2024-02-23T06:11:50;100094.59;;;1.32;100.00
35435;BME280;21556;55.782;37.528;2024-02-23T06:14:16;100079.81;;;1.02;100.00
35435;BME280;21556;55.782;37.528;2024-02-23T06:16:42;100088.19;;;0.98;100.00
35435;BME280;21556;55.782;37.528;2024-02-23T06:19:10;100079.78;;;1.30;100.00
35435;BME280;21556;55.782;37.528;2024-02-23T06:21:36;100082.91;;;1.09;100.00
35435;BME280;21556;55.782;37.528;2024-02-23T06:24:03;100081.31;;;1.26;100.00
35435;BME280;21556;55.782;37.528;2024-02-23T06:26:30;100091.03;;;1.30;100.00
35435;BME280;21556;55.782;37.528;2024-02-23T06:28:56;100094.66;;;1.19;100.00
35435;BME280;21556;55.782;37.528;2024-02-23T06:31:22;100086.66;;;1.29;100.00
35435;BME280;21556;55.782;37.528;2024-02-23T06:33:51;100094.16;;;1.25;100.00
35435;BME280;21556;55.782;37.528;2024-02-23T06:36:19;100107.06;;;0.82;100.00
35435;BME280;21556;55.782;37.528;2024-02-23T06:38:46;100097.75;;;0.99;100.00
35435;BME280;21556;55.782;37.528;2024-02-23T06:41:12;100101.72;;;1.22;100.00
35435;BME280;21556;55.782;37.528;2024-02-23T06:43:38;100108.31;;;1.16;100.00
35435;BME280;21556;55.782;37.528;2024-02-23T06:46:09;100101.50;;;0.76;100.00
35435;BME280;21556;55.782;37.528;2024-02-23T06:48:45;100105.38;;;1.40;100.00
35435;BME280;21556;55.782;37.528;2024-02-23T06:51:11;100099.91;;;1.06;100.00
35435;BME280;21556;55.782;37.528;2024-02-23T06:53:40;100114.38;;;1.17;100.00
35435;BME280;21556;55.782;37.528;2024-02-23T06:56:28;100102.94;;;1.56;100.00
35435;BME280;21556;55.782;37.528;2024-02-23T06:59:08;100105.97;;;1.06;100.00
35435;BME280;21556;55.782;37.528;2024-02-23T07:01:34;100114.22;;;1.29;100.00
35435;BME280;21556;55.782;37.528;2024-02-23T07:04:02;100102.56;;;1.50;100.00
35435;BME280;21556;55.782;37.528;2024-02-23T07:06:31;100104.13;;;1.33;100.00
35435;BME280;21556;55.782;37.528;2024-02-23T07:09:00;100109.31;;;1.33;100.00
35435;BME280;21556;55.782;37.528;2024-02-23T07:11:27;100116.94;;;1.17;100.00
35435;BME280;21556;55.782;37.528;2024-02-23T07:13:55;100128.81;;;1.28;100.00
35435;BME280;21556;55.782;37.528;2024-02-23T07:16:21;100123.69;;;1.00;100.00
35435;BME280;21556;55.782;37.528;2024-02-23T07:18:48;100107.91;;;1.38;100.00
35435;BME280;21556;55.782;37.528;2024-02-23T07:21:19;100109.06;;;1.43;100.00
35435;BME280;21556;55.782;37.528;2024-02-23T07:23:45;100116.84;;;1.15;100.00
35435;BME280;21556;55.782;37.528;2024-02-23T07:26:11;100127.94;;;1.28;100.00
35435;BME280;21556;55.782;37.528;2024-02-23T07:28:38;100123.50;;;1.40;100.00
35435;BME280;21556;55.782;37.528;2024-02-23T07:31:04;100123.13;;;1.34;100.00
35435;BME280;21556;55.782;37.528;2024-02-23T07:33:30;100126.41;;;1.16;100.00
35435;BME280;21556;55.782;37.528;2024-02-23T07:35:56;100121.41;;;1.34;100.00
35435;BME280;21556;55.782;37.528;2024-02-23T07:38:26;100131.81;;;1.06;100.00
35435;BME280;21556;55.782;37.528;2024-02-23T07:40:53;100129.00;;;1.31;100.00
35435;BME280;21556;55.782;37.528;2024-02-23T07:43:19;100120.25;;;1.29;100.00
35435;BME280;21556;55.782;37.528;2024-02-23T07:45:46;100116.81;;;1.43;100.00
35435;BME280;21556;55.782;37.528;2024-02-23T07:48:15;100115.03;;;1.42;100.00
35435;BME280;21556;55.782;37.528;2024-02-23T07:50:44;100126.31;;;1.30;100.00
35435;BME280;21556;55.782;37.528;2024-02-23T07:53:14;100120.97;;;1.27;100.00
35435;BME280;21556;55.782;37.528;2024-02-23T07:55:40;100121.59;;;1.23;100.00
35435;BME280;21556;55.782;37.528;2024-02-23T07:58:09;100125.63;;;1.32;100.00
35435;BME280;21556;55.782;37.528;2024-02-23T08:00:36;100130.94;;;1.63;100.00
35435;BME280;21556;55.782;37.528;2024-02-23T08:03:04;100119.41;;;1.58;100.00
35435;BME280;21556;55.782;37.528;2024-02-23T08:05:30;100123.75;;;1.44;100.00
35435;BME280;21556;55.782;37.528;2024-02-23T08:08:08;100136.53;;;1.56;100.00
35435;BME280;21556;55.782;37.528;2024-02-23T08:10:37;100127.84;;;1.41;100.00
35435;BME280;21556;55.782;37.528;2024-02-23T08:13:03;100120.22;;;1.57;100.00
35435;BME280;21556;55.782;37.528;2024-02-23T08:15:32;100127.41;;;1.33;100.00
35435;BME280;21556;55.782;37.528;2024-02-23T08:17:58;100131.19;;;1.53;100.00
35435;BME280;21556;55.782;37.528;2024-02-23T08:20:24;100130.63;;;1.59;100.00
35435;BME280;21556;55.782;37.528;2024-02-23T08:22:50;100139.91;;;1.70;100.00
35435;BME280;21556;55.782;37.528;2024-02-23T08:25:36;100135.47;;;1.82;100.00
35435;BME280;21556;55.782;37.528;2024-02-23T08:28:02;100144.44;;;1.59;100.00
35435;BME280;21556;55.782;37.528;2024-02-23T08:30:30;100142.31;;;1.52;100.00
35435;BME280;21556;55.782;37.528;2024-02-23T08:32:56;100146.31;;;1.32;100.00
35435;BME280;21556;55.782;37.528;2024-02-23T08:35:26;100148.94;;;1.19;100.00
35435;BME280;21556;55.782;37.528;2024-02-23T08:37:52;100133.59;;;1.65;100.00
35435;BME280;21556;55.782;37.528;2024-02-23T08:40:18;100147.84;;;1.58;100.00
35435;BME280;21556;55.782;37.528;2024-02-23T08:42:45;100134.66;;;1.83;100.00
35435;BME280;21556;55.782;37.528;2024-02-23T08:45:15;100147.28;;;1.34;100.00
35435;BME280;21556;55.782;37.528;2024-02-23T08:47:42;100159.72;;;1.69;100.00
35435;BME280;21556;55.782;37.528;2024-02-23T08:50:23;100158.66;;;1.66;100.00
35435;BME280;21556;55.782;37.528;2024-02-23T08:52:49;100153.13;;;1.60;100.00
35435;BME280;21556;55.782;37.528;2024-02-23T08:55:18;100155.25;;;1.52;100.00
35435;BME280;21556;55.782;37.528;2024-02-23T08:57:44;100163.81;;;1.81;100.00
35435;BME280;21556;55.782;37.528;2024-02-23T09:00:11;100153.22;;;1.76;100.00
35435;BME280;21556;55.782;37.528;2024-02-23T09:02:37;100148.47;;;2.13;100.00
35435;BME280;21556;55.782;37.528;2024-02-23T09:05:04;100149.97;;;2.10;100.00
35435;BME280;21556;55.782;37.528;2024-02-23T09:07:31;100161.16;;;1.94;100.00
35435;BME280;21556;55.782;37.528;2024-02-23T09:09:57;100164.00;;;1.99;100.00
35435;BME280;21556;55.782;37.528;2024-02-23T09:12:23;100158.13;;;1.57;100.00
35435;BME280;21556;55.782;37.528;2024-02-23T09:14:50;100163.00;;;1.67;100.00
35435;BME280;21556;55.782;37.528;2024-02-23T09:17:16;100161.03;;;1.63;100.00
35435;BME280;21556;55.782;37.528;2024-02-23T09:19:42;100166.56;;;1.39;100.00
35435;BME280;21556;55.782;37.528;2024-02-23T09:22:08;100162.88;;;1.93;100.00
35435;BME280;21556;55.782;37.528;2024-02-23T09:24:34;100160.53;;;1.68;100.00
35435;BME280;21556;55.782;37.528;2024-02-23T09:29:50;100160.72;;;1.72;100.00
35435;BME280;21556;55.782;37.528;2024-02-23T09:32:18;100158.31;;;2.04;100.00
35435;BME280;21556;55.782;37.528;2024-02-23T09:34:45;100167.41;;;1.83;100.00
35435;BME280;21556;55.782;37.528;2024-02-23T09:37:13;100161.69;;;2.03;100.00
35435;BME280;21556;55.782;37.528;2024-02-23T09:39:39;100158.78;;;2.28;100.00
35435;BME280;21556;55.782;37.528;2024-02-23T09:42:09;100147.94;;;2.50;100.00
35435;BME280;21556;55.782;37.528;2024-02-23T09:44:37;100152.50;;;2.08;100.00
35435;BME280;21556;55.782;37.528;2024-02-23T09:47:05;100157.19;;;2.30;100.00
35435;BME280;21556;55.782;37.528;2024-02-23T09:49:38;100161.13;;;2.24;100.00
35435;BME280;21556;55.782;37.528;2024-02-23T09:52:11;100153.88;;;2.48;100.00
35435;BME280;21556;55.782;37.528;2024-02-23T09:54:40;100148.47;;;2.76;100.00
35435;BME280;21556;55.782;37.528;2024-02-23T09:57:10;100149.88;;;2.85;100.00
35435;BME280;21556;55.782;37.528;2024-02-23T09:59:36;100162.88;;;2.54;100.00
35435;BME280;21556;55.782;37.528;2024-02-23T10:02:07;100158.47;;;2.53;100.00
35435;BME280;21556;55.782;37.528;2024-02-23T10:04:36;100165.56;;;2.41;100.00
35435;BME280;21556;55.782;37.528;2024-02-23T10:07:02;100167.09;;;2.69;100.00
35435;BME280;21556;55.782;37.528;2024-02-23T10:09:32;100166.50;;;2.27;100.00
35435;BME280;21556;55.782;37.528;2024-02-23T10:11:58;100164.50;;;2.37;100.00
35435;BME280;21556;55.782;37.528;2024-02-23T10:14:24;100152.91;;;2.31;100.00
35435;BME280;21556;55.782;37.528;2024-02-23T10:16:51;100155.97;;;2.86;100.00
35435;BME280;21556;55.782;37.528;2024-02-23T10:19:19;100167.25;;;2.55;100.00
35435;BME280;21556;55.782;37.528;2024-02-23T10:21:46;100161.72;;;2.80;100.00
35435;BME280;21556;55.782;37.528;2024-02-23T10:24:15;100164.00;;;2.91;100.00
35435;BME280;21556;55.782;37.528;2024-02-23T10:26:42;100170.63;;;2.85;100.00
35435;BME280;21556;55.782;37.528;2024-02-23T10:29:10;100161.81;;;2.98;100.00
35435;BME280;21556;55.782;37.528;2024-02-23T10:31:40;100164.25;;;2.64;100.00
35435;BME280;21556;55.782;37.528;2024-02-23T10:34:09;100164.31;;;2.97;100.00
35435;BME280;21556;55.782;37.528;2024-02-23T10:36:41;100165.06;;;3.10;100.00
35435;BME280;21556;55.782;37.528;2024-02-23T10:39:15;100166.09;;;2.98;100.00
35435;BME280;21556;55.782;37.528;2024-02-23T10:42:03;100158.59;;;3.02;100.00
35435;BME280;21556;55.782;37.528;2024-02-23T10:44:30;100165.84;;;2.77;100.00
35435;BME280;21556;55.782;37.528;2024-02-23T10:46:58;100188.09;;;2.73;100.00
35435;BME280;21556;55.782;37.528;2024-02-23T10:49:29;100175.56;;;2.81;100.00
35435;BME280;21556;55.782;37.528;2024-02-23T10:51:57;100178.03;;;2.79;100.00
35435;BME280;21556;55.782;37.528;2024-02-23T10:54:23;100185.69;;;2.76;100.00
35435;BME280;21556;55.782;37.528;2024-02-23T10:56:50;100192.19;;;2.38;100.00
35435;BME280;21556;55.782;37.528;2024-02-23T10:59:17;100187.97;;;2.55;100.00
35435;BME280;21556;55.782;37.528;2024-02-23T11:01:49;100181.09;;;2.72;100.00
35435;BME280;21556;55.782;37.528;2024-02-23T11:04:17;100179.03;;;2.81;100.00
35435;BME280;21556;55.782;37.528;2024-02-23T11:06:49;100191.78;;;2.93;100.00
35435;BME280;21556;55.782;37.528;2024-02-23T11:09:22;100193.88;;;2.84;100.00
35435;BME280;21556;55.782;37.528;2024-02-23T11:11:56;100192.09;;;2.68;100.00
35435;BME280;21556;55.782;37.528;2024-02-23T11:14:36;100193.88;;;2.84;100.00
35435;BME280;21556;55.782;37.528;2024-02-23T11:17:03;100199.88;;;2.99;100.00
35435;BME280;21556;55.782;37.528;2024-02-23T11:19:36;100198.44;;;3.04;100.00
35435;BME280;21556;55.782;37.528;2024-02-23T11:22:03;100195.84;;;3.04;100.00
35435;BME280;21556;55.782;37.528;2024-02-23T11:24:31;100195.88;;;2.89;100.00
35435;BME280;21556;55.782;37.528;2024-02-23T11:27:00;100197.56;;;3.20;100.00
35435;BME280;21556;55.782;37.528;2024-02-23T11:29:34;100192.34;;;3.04;100.00
35435;BME280;21556;55.782;37.528;2024-02-23T11:32:02;100199.06;;;3.00;100.00
35435;BME280;21556;55.782;37.528;2024-02-23T11:34:30;100195.25;;;2.94;100.00
35435;BME280;21556;55.782;37.528;2024-02-23T11:36:56;100191.81;;;3.09;100.00
35435;BME280;21556;55.782;37.528;2024-02-23T11:39:26;100190.81;;;3.07;100.00
35435;BME280;21556;55.782;37.528;2024-02-23T11:41:53;100180.78;;;3.30;100.00
35435;BME280;21556;55.782;37.528;2024-02-23T11:44:21;100180.41;;;3.38;100.00
35435;BME280;21556;55.782;37.528;2024-02-23T11:46:52;100190.09;;;3.59;100.00
35435;BME280;21556;55.782;37.528;2024-02-23T11:49:19;100197.78;;;3.41;100.00
35435;BME280;21556;55.782;37.528;2024-02-23T11:51:52;100197.88;;;3.10;100.00
35435;BME280;21556;55.782;37.528;2024-02-23T11:58:40;100200.41;;;3.25;100.00
35435;BME280;21556;55.782;37.528;2024-02-23T12:01:10;100203.81;;;3.40;100.00
35435;BME280;21556;55.782;37.528;2024-02-23T12:03:42;100197.97;;;3.28;100.00
35435;BME280;21556;55.782;37.528;2024-02-23T12:06:10;100199.28;;;3.36;100.00
35435;BME280;21556;55.782;37.528;2024-02-23T12:08:53;100196.44;;;3.64;100.00
35435;BME280;21556;55.782;37.528;2024-02-23T12:11:19;100198.38;;;3.68;100.00
35435;BME280;21556;55.782;37.528;2024-02-23T12:13:48;100205.00;;;3.63;100.00
35435;BME280;21556;55.782;37.528;2024-02-23T12:16:15;100208.09;;;3.40;100.00
35435;BME280;21556;55.782;37.528;2024-02-23T12:18:41;100203.63;;;3.37;100.00
35435;BME280;21556;55.782;37.528;2024-02-23T12:21:08;100197.91;;;3.43;100.00
35435;BME280;21556;55.782;37.528;2024-02-23T12:23:48;100208.59;;;3.49;100.00
35435;BME280;21556;55.782;37.528;2024-02-23T12:26:17;100216.53;;;3.52;100.00
35435;BME280;21556;55.782;37.528;2024-02-23T12:28:47;100202.19;;;3.42;100.00
35435;BME280;21556;55.782;37.528;2024-02-23T12:31:23;100215.22;;;3.44;100.00
35435;BME280;21556;55.782;37.528;2024-02-23T12:33:50;100207.84;;;3.19;100.00
35435;BME280;21556;55.782;37.528;2024-02-23T12:36:21;100206.41;;;3.40;100.00
35435;BME280;21556;55.782;37.528;2024-02-23T12:38:48;100206.56;;;3.27;100.00
35435;BME280;21556;55.782;37.528;2024-02-23T12:41:15;100208.59;;;3.49;100.00
35435;BME280;21556;55.782;37.528;2024-02-23T12:43:41;100203.31;;;3.47;100.00
35435;BME280;21556;55.782;37.528;2024-02-23T12:46:10;100212.59;;;2.95;100.00
35435;BME280;21556;55.782;37.528;2024-02-23T12:48:42;100208.91;;;3.22;100.00
35435;BME280;21556;55.782;37.528;2024-02-23T12:51:11;100196.84;;;3.39;100.00
35435;BME280;21556;55.782;37.528;2024-02-23T12:53:39;100215.31;;;3.29;100.00
35435;BME280;21556;55.782;37.528;2024-02-23T12:56:10;100212.88;;;3.32;100.00